Time;durP1;ratioP1;P1;durP2;ratioP2;P2;SDS_P1;SDS_P2;PMS_P1;PMS_P2;Temp;Humidity;BMP_temperature;BMP_pressure;BME280_temperature;BME280_humidity;BME280_pressure;Samples;Min_cycle;Max_cycle;Signal;HPM_P1;HPM_P2
2023/12/05 00:00:22;;;;;;;110.03;54.80;;;;;;;;;;6076084;23;20066;-84
2023/12/05 00:02:47;;;;;;;110.13;53.03;;;;;;;;;;6043054;23;20007;-85
2023/12/05 00:05:13;;;;;;;92.80;44.33;;;;;;;;;;6064851;23;19998;-85
2023/12/05 00:07:38;;;;;;;74.63;38.00;;;;;;;;;;6062502;23;20007;-85
2023/12/05 00:10:05;;;;;;;59.47;31.87;;;;;;;;;;6037768;23;20002;-85
2023/12/05 00:12:30;;;;;;;62.57;33.67;;;;;;;;;;6037067;23;20010;-84
2023/12/05 00:14:55;;;;;;;49.63;26.27;;;;;;;;;;6061263;23;20033;-85
2023/12/05 00:17:20;;;;;;;50.20;29.97;;;;;;;;;;6060969;23;19999;-86
2023/12/05 00:19:46;;;;;;;47.30;26.07;;;;;;;;;;6079859;23;20002;-85
2023/12/05 00:22:11;;;;;;;54.90;31.43;;;;;;;;;;6122747;23;20391;-85
2023/12/05 00:24:36;;;;;;;56.57;29.90;;;;;;;;;;6096541;23;20085;-84
2023/12/05 00:27:02;;;;;;;64.13;33.20;;;;;;;;;;6096490;23;20001;-85
2023/12/05 00:29:27;;;;;;;70.63;38.17;;;;;;;;;;6096527;23;19997;-85
2023/12/05 00:31:52;;;;;;;60.80;32.00;;;;;;;;;;6096666;23;20025;-85
2023/12/05 00:34:18;;;;;;;55.80;27.80;;;;;;;;;;6122773;23;20025;-85
2023/12/05 00:36:43;;;;;;;60.03;32.40;;;;;;;;;;6095700;23;20001;-85
2023/12/05 00:39:09;;;;;;;45.73;23.63;;;;;;;;;;6096389;23;20040;-85
2023/12/05 00:41:34;;;;;;;60.27;28.53;;;;;;;;;;6096643;23;20450;-85
2023/12/05 00:43:59;;;;;;;74.77;34.73;;;;;;;;;;6096519;23;20032;-85
2023/12/05 00:46:26;;;;;;;86.37;43.47;;;;;;;;;;6096133;23;20065;-85
2023/12/05 00:48:51;;;;;;;88.73;45.03;;;;;;;;;;6122725;23;20002;-84
2023/12/05 00:51:17;;;;;;;73.27;37.17;;;;;;;;;;6096649;23;20014;-85
2023/12/05 00:53:42;;;;;;;69.10;38.07;;;;;;;;;;6096540;23;20005;-84
2023/12/05 00:56:10;;;;;;;62.13;32.33;;;;;;;;;;6096303;23;20005;-85
2023/12/05 00:58:36;;;;;;;57.15;29.77;;;;;;;;;;6096304;23;20089;-85
2023/12/05 01:01:01;;;;;;;57.73;29.93;;;;;;;;;;6095807;23;20037;-85
2023/12/05 01:03:27;;;;;;;57.20;31.03;;;;;;;;;;6122241;23;20383;-85
2023/12/05 01:05:52;;;;;;;79.60;41.67;;;;;;;;;;6096241;23;20002;-84
2023/12/05 01:08:17;;;;;;;70.03;35.83;;;;;;;;;;6122609;23;20315;-84
2023/12/05 01:10:43;;;;;;;74.40;39.17;;;;;;;;;;6096384;23;19998;-85
2023/12/05 01:13:08;;;;;;;67.00;34.33;;;;;;;;;;6096300;23;20004;-84
2023/12/05 01:15:34;;;;;;;72.27;36.17;;;;;;;;;;6095968;23;20025;-85
2023/12/05 01:17:59;;;;;;;61.03;33.30;;;;;;;;;;6072273;23;20089;-85
2023/12/05 01:20:24;;;;;;;63.33;31.87;;;;;;;;;;6096139;23;20005;-85
2023/12/05 01:22:49;;;;;;;53.57;28.93;;;;;;;;;;6096228;23;20093;-84
2023/12/05 01:25:15;;;;;;;62.17;32.10;;;;;;;;;;6095779;23;19998;-85
2023/12/05 01:27:40;;;;;;;73.60;36.83;;;;;;;;;;6096011;23;20045;-85
2023/12/05 01:30:06;;;;;;;71.83;36.97;;;;;;;;;;6122076;23;20117;-85
2023/12/05 01:32:31;;;;;;;74.03;38.63;;;;;;;;;;6096294;23;20137;-85
2023/12/05 01:34:56;;;;;;;62.97;35.53;;;;;;;;;;6095615;23;20005;-85
2023/12/05 01:37:23;;;;;;;63.30;36.10;;;;;;;;;;6095836;23;20006;-84
2023/12/05 01:39:48;;;;;;;56.97;32.27;;;;;;;;;;6096506;23;20002;-85
2023/12/05 01:42:14;;;;;;;46.17;27.17;;;;;;;;;;6090970;23;20061;-85
2023/12/05 01:44:40;;;;;;;56.13;32.13;;;;;;;;;;6092682;23;20057;-85
2023/12/05 01:47:05;;;;;;;53.40;28.70;;;;;;;;;;6090804;23;20014;-84
2023/12/05 01:49:33;;;;;;;54.10;29.00;;;;;;;;;;6090728;23;20005;-85
2023/12/05 01:51:59;;;;;;;59.07;32.93;;;;;;;;;;6091019;23;20002;-84
2023/12/05 01:54:26;;;;;;;54.27;32.40;;;;;;;;;;6092637;23;20013;-85
2023/12/05 01:56:53;;;;;;;60.23;35.07;;;;;;;;;;6092731;23;20018;-84
2023/12/05 01:59:19;;;;;;;49.00;28.33;;;;;;;;;;6092604;23;20002;-85
2023/12/05 02:01:45;;;;;;;59.37;30.90;;;;;;;;;;6091206;23;20010;-85
2023/12/05 02:04:11;;;;;;;59.80;34.70;;;;;;;;;;6092667;23;19990;-84
2023/12/05 02:06:36;;;;;;;65.33;33.47;;;;;;;;;;6090578;23;20006;-83
2023/12/05 02:09:03;;;;;;;63.27;34.20;;;;;;;;;;6090287;23;20026;-83
2023/12/05 02:11:28;;;;;;;51.97;30.03;;;;;;;;;;6090974;23;20002;-85
2023/12/05 02:13:54;;;;;;;56.73;31.93;;;;;;;;;;6090699;23;20486;-83
2023/12/05 02:16:30;;;;;;;54.90;31.00;;;;;;;;;;6091297;23;20412;-83
2023/12/05 02:19:04;;;;;;;53.72;30.00;;;;;;;;;;6094099;23;20002;-84
2023/12/05 02:21:32;;;;;;;60.10;34.50;;;;;;;;;;6093031;23;20058;-83
2023/12/05 02:23:57;;;;;;;94.83;47.17;;;;;;;;;;6091047;23;19995;-83
2023/12/05 02:26:23;;;;;;;67.00;36.80;;;;;;;;;;6090904;23;20003;-84
2023/12/05 02:28:49;;;;;;;67.73;35.17;;;;;;;;;;6091477;23;20428;-84
2023/12/05 02:31:14;;;;;;;86.37;42.87;;;;;;;;;;6103309;23;20388;-85
2023/12/05 02:33:40;;;;;;;72.05;37.67;;;;;;;;;;6113838;23;20022;-85
2023/12/05 02:36:25;;;;;;;72.03;36.87;;;;;;;;;;6104159;23;19998;-84
2023/12/05 02:38:53;;;;;;;61.28;34.25;;;;;;;;;;6094491;23;19994;-85
2023/12/05 02:41:20;;;;;;;63.20;35.93;;;;;;;;;;6091119;23;20022;-83
2023/12/05 02:43:49;;;;;;;76.38;40.75;;;;;;;;;;6090690;23;20002;-84
2023/12/05 02:46:16;;;;;;;72.80;41.23;;;;;;;;;;6092482;23;20393;-84
2023/12/05 02:48:43;;;;;;;76.07;42.70;;;;;;;;;;6090313;23;20077;-84
2023/12/05 02:51:09;;;;;;;84.80;46.90;;;;;;;;;;6089733;23;20025;-82
2023/12/05 02:53:34;;;;;;;83.60;46.75;;;;;;;;;;6092372;23;19998;-83
2023/12/05 02:56:00;;;;;;;78.72;43.60;;;;;;;;;;6090342;23;20489;-83
2023/12/05 02:58:25;;;;;;;75.20;40.87;;;;;;;;;;6090790;23;20431;-84
2023/12/05 03:00:50;;;;;;;79.38;44.55;;;;;;;;;;6089734;23;20002;-85
2023/12/05 03:03:16;;;;;;;81.77;43.87;;;;;;;;;;6091681;23;20002;-84
2023/12/05 03:05:41;;;;;;;78.82;42.20;;;;;;;;;;6091385;23;20007;-84
2023/12/05 03:08:06;;;;;;;82.75;44.53;;;;;;;;;;6088487;23;19998;-84
2023/12/05 03:10:31;;;;;;;100.80;53.43;;;;;;;;;;6089127;23;19999;-84
2023/12/05 03:12:57;;;;;;;90.18;47.88;;;;;;;;;;6089334;23;20342;-84
2023/12/05 03:15:23;;;;;;;86.63;45.20;;;;;;;;;;6091725;23;20005;-84
2023/12/05 03:17:48;;;;;;;73.63;45.87;;;;;;;;;;6091410;23;19998;-84
2023/12/05 03:20:14;;;;;;;68.90;39.77;;;;;;;;;;6092108;23;20639;-84
2023/12/05 03:22:39;;;;;;;67.00;37.63;;;;;;;;;;6090463;23;20010;-84
2023/12/05 03:25:05;;;;;;;58.63;32.45;;;;;;;;;;6093662;23;20010;-84
2023/12/05 03:27:30;;;;;;;59.70;34.47;;;;;;;;;;6093223;23;20100;-85
2023/12/05 03:29:57;;;;;;;53.47;31.45;;;;;;;;;;6093322;23;19998;-84
2023/12/05 03:32:22;;;;;;;61.78;36.65;;;;;;;;;;6092023;23;20053;-84
2023/12/05 03:34:48;;;;;;;75.03;41.80;;;;;;;;;;6091763;23;20089;-84
2023/12/05 03:37:13;;;;;;;73.40;39.27;;;;;;;;;;6091788;23;20081;-83
2023/12/05 03:39:38;;;;;;;76.03;39.38;;;;;;;;;;6092215;23;20012;-84
2023/12/05 03:42:04;;;;;;;70.47;37.38;;;;;;;;;;6091402;23;20029;-84
2023/12/05 03:44:29;;;;;;;68.43;34.93;;;;;;;;;;6091343;23;20003;-84
2023/12/05 03:46:54;;;;;;;70.07;39.30;;;;;;;;;;6092027;23;19994;-84
2023/12/05 03:49:20;;;;;;;64.25;32.38;;;;;;;;;;6091506;23;20014;-84
2023/12/05 03:51:45;;;;;;;63.97;33.67;;;;;;;;;;6091650;23;20009;-84
2023/12/05 03:54:10;;;;;;;152.20;67.53;;;;;;;;;;6091937;23;20002;-84
2023/12/05 03:56:36;;;;;;;120.03;55.22;;;;;;;;;;6091647;23;20449;-84
2023/12/05 03:59:01;;;;;;;78.90;38.73;;;;;;;;;;6091535;23;20085;-83
2023/12/05 04:01:26;;;;;;;110.15;49.00;;;;;;;;;;6091819;23;20065;-83
2023/12/05 04:03:52;;;;;;;53.80;31.02;;;;;;;;;;6092936;23;20335;-84
2023/12/05 04:06:21;;;;;;;99.80;42.95;;;;;;;;;;6092336;23;20439;-84
2023/12/05 04:08:46;;;;;;;101.95;47.42;;;;;;;;;;6092055;23;20276;-83
2023/12/05 04:11:12;;;;;;;56.05;28.85;;;;;;;;;;6093477;23;20013;-84
2023/12/05 04:13:37;;;;;;;67.37;35.47;;;;;;;;;;6093967;23;20030;-83
2023/12/05 04:16:03;;;;;;;57.50;31.80;;;;;;;;;;6094223;23;20030;-83
2023/12/05 04:18:28;;;;;;;62.90;35.70;;;;;;;;;;6093406;23;20072;-82
2023/12/05 04:20:53;;;;;;;51.10;29.55;;;;;;;;;;6093660;23;20017;-83
2023/12/05 04:23:19;;;;;;;71.03;40.10;;;;;;;;;;6095650;23;19998;-84
2023/12/05 04:25:44;;;;;;;125.47;62.38;;;;;;;;;;6094751;23;20049;-83
2023/12/05 04:28:09;;;;;;;98.57;54.10;;;;;;;;;;6093063;23;20002;-84
2023/12/05 04:30:35;;;;;;;66.25;35.15;;;;;;;;;;6093860;23;20002;-83
2023/12/05 04:33:00;;;;;;;79.90;41.33;;;;;;;;;;6094895;23;19998;-83
2023/12/05 04:35:25;;;;;;;111.80;55.75;;;;;;;;;;6092979;23;20077;-83
2023/12/05 04:37:50;;;;;;;106.55;54.35;;;;;;;;;;6093357;23;20010;-82
2023/12/05 04:40:16;;;;;;;83.80;45.13;;;;;;;;;;6095879;23;20006;-82
2023/12/05 04:42:42;;;;;;;100.00;52.67;;;;;;;;;;6098117;23;20028;-85
2023/12/05 04:45:08;;;;;;;91.35;48.15;;;;;;;;;;6124414;23;20072;-83
2023/12/05 04:47:33;;;;;;;80.90;41.50;;;;;;;;;;6098554;23;20005;-83
2023/12/05 04:49:58;;;;;;;75.70;42.10;;;;;;;;;;6098403;23;20455;-83
2023/12/05 04:52:24;;;;;;;87.45;46.47;;;;;;;;;;6097140;23;20002;-83
2023/12/05 04:54:49;;;;;;;187.75;88.72;;;;;;;;;;6098511;23;20006;-83
2023/12/05 04:57:14;;;;;;;94.22;46.60;;;;;;;;;;6097924;23;19998;-85
2023/12/05 04:59:40;;;;;;;76.30;41.60;;;;;;;;;;6124641;23;19998;-83
2023/12/05 05:02:05;;;;;;;56.83;32.28;;;;;;;;;;6129943;23;20018;-83
2023/12/05 05:04:30;;;;;;;89.20;43.63;;;;;;;;;;6120228;23;20065;-84
2023/12/05 05:06:56;;;;;;;78.47;41.58;;;;;;;;;;6139472;23;20013;-83
2023/12/05 05:09:21;;;;;;;104.85;53.40;;;;;;;;;;6098656;23;20076;-82
2023/12/05 05:11:47;;;;;;;73.13;41.28;;;;;;;;;;6097648;23;20422;-83
2023/12/05 05:14:12;;;;;;;87.95;46.33;;;;;;;;;;6098212;23;20013;-83
2023/12/05 05:16:37;;;;;;;88.50;45.45;;;;;;;;;;6123988;23;20103;-82
2023/12/05 05:19:03;;;;;;;82.80;41.92;;;;;;;;;;6124305;23;20002;-83
2023/12/05 05:21:28;;;;;;;61.45;33.30;;;;;;;;;;6098270;23;20006;-84
2023/12/05 05:23:53;;;;;;;61.60;34.03;;;;;;;;;;6097627;23;20433;-82
2023/12/05 05:26:19;;;;;;;57.00;31.08;;;;;;;;;;6123727;23;19998;-83
2023/12/05 05:28:44;;;;;;;53.10;30.13;;;;;;;;;;6097908;23;20034;-83
2023/12/05 05:31:09;;;;;;;85.88;41.08;;;;;;;;;;6097868;23;20005;-83
2023/12/05 05:33:35;;;;;;;62.97;37.05;;;;;;;;;;6097202;23;20012;-83
2023/12/05 05:36:00;;;;;;;61.75;33.88;;;;;;;;;;6122985;23;19990;-83
2023/12/05 05:38:25;;;;;;;61.13;32.67;;;;;;;;;;6097183;23;20002;-84
2023/12/05 05:41:02;;;;;;;50.97;30.08;;;;;;;;;;6096785;23;20029;-85
2023/12/05 05:43:27;;;;;;;57.13;30.48;;;;;;;;;;6097057;23;20013;-83
2023/12/05 05:45:52;;;;;;;50.10;28.73;;;;;;;;;;6097285;23;20427;-83
2023/12/05 05:48:19;;;;;;;50.28;29.80;;;;;;;;;;6096850;23;19994;-83
2023/12/05 05:50:46;;;;;;;50.13;28.65;;;;;;;;;;6097598;23;20002;-85
2023/12/05 05:53:11;;;;;;;46.63;28.60;;;;;;;;;;6122746;23;20040;-82
2023/12/05 05:55:36;;;;;;;49.00;29.63;;;;;;;;;;6123202;23;20029;-82
2023/12/05 05:58:02;;;;;;;48.15;28.98;;;;;;;;;;6096028;23;20002;-84
2023/12/05 06:00:27;;;;;;;107.15;44.25;;;;;;;;;;6096264;23;20076;-84
2023/12/05 06:02:53;;;;;;;87.43;37.45;;;;;;;;;;6097337;23;20505;-84
2023/12/05 06:05:18;;;;;;;117.93;48.45;;;;;;;;;;6097021;23;20002;-85
2023/12/05 06:07:44;;;;;;;89.82;40.70;;;;;;;;;;6096554;23;20497;-83
2023/12/05 06:10:09;;;;;;;57.60;35.00;;;;;;;;;;6097246;23;20026;-82
2023/12/05 06:12:34;;;;;;;60.38;36.40;;;;;;;;;;6096134;23;20010;-85
2023/12/05 06:15:00;;;;;;;62.25;38.70;;;;;;;;;;6097171;23;20008;-86
2023/12/05 06:17:25;;;;;;;95.20;57.85;;;;;;;;;;6096904;23;20002;-85
2023/12/05 06:19:50;;;;;;;103.22;58.95;;;;;;;;;;6122155;23;20005;-85
2023/12/05 06:22:16;;;;;;;116.97;61.92;;;;;;;;;;6096763;23;20006;-83
2023/12/05 06:24:41;;;;;;;178.35;96.85;;;;;;;;;;6096243;23;20056;-83
2023/12/05 06:27:06;;;;;;;192.57;97.53;;;;;;;;;;6121361;23;20005;-83
2023/12/05 06:29:33;;;;;;;210.88;119.72;;;;;;;;;;6091950;23;20008;-82
2023/12/05 06:31:59;;;;;;;226.77;119.45;;;;;;;;;;6092362;23;20032;-83
2023/12/05 06:34:24;;;;;;;424.15;276.13;;;;;;;;;;6118541;23;19998;-84
2023/12/05 06:36:50;;;;;;;277.00;146.82;;;;;;;;;;6093314;23;20033;-83
2023/12/05 06:39:15;;;;;;;422.52;201.48;;;;;;;;;;6094385;23;20342;-82
2023/12/05 06:41:40;;;;;;;391.83;179.88;;;;;;;;;;6088065;23;20447;-83
2023/12/05 06:44:06;;;;;;;434.23;183.25;;;;;;;;;;6088387;23;20404;-82
2023/12/05 06:46:31;;;;;;;392.63;185.57;;;;;;;;;;6088174;23;20009;-84
2023/12/05 06:48:57;;;;;;;258.25;126.50;;;;;;;;;;6088070;23;20048;-82
2023/12/05 06:51:23;;;;;;;390.48;164.38;;;;;;;;;;6094534;23;19998;-82
2023/12/05 06:53:48;;;;;;;395.02;166.35;;;;;;;;;;6087423;23;19998;-82
2023/12/05 06:56:14;;;;;;;338.55;134.30;;;;;;;;;;6087585;23;19999;-82
2023/12/05 06:58:39;;;;;;;211.30;107.25;;;;;;;;;;6088554;23;20009;-82
2023/12/05 07:01:05;;;;;;;141.50;73.47;;;;;;;;;;6086957;23;20026;-83
2023/12/05 07:03:30;;;;;;;170.52;83.93;;;;;;;;;;6088133;23;20420;-82
2023/12/05 07:05:56;;;;;;;44.25;25.02;;;;;;;;;;6090601;23;20037;-82
2023/12/05 07:08:21;;;;;;;37.83;22.60;;;;;;;;;;6091314;23;20150;-84
2023/12/05 07:10:46;;;;;;;37.67;22.40;;;;;;;;;;6095465;23;20339;-81
2023/12/05 07:13:12;;;;;;;31.20;18.10;;;;;;;;;;6093144;23;20006;-83
2023/12/05 07:15:37;;;;;;;36.55;21.23;;;;;;;;;;6087708;23;20030;-81
2023/12/05 07:18:02;;;;;;;36.15;20.73;;;;;;;;;;6088767;23;20346;-83
2023/12/05 07:20:28;;;;;;;42.05;22.00;;;;;;;;;;6089806;23;20432;-83
2023/12/05 07:22:53;;;;;;;34.67;19.45;;;;;;;;;;6089066;23;20006;-83
2023/12/05 07:25:18;;;;;;;49.15;24.45;;;;;;;;;;6091714;23;19998;-83
2023/12/05 07:27:44;;;;;;;46.58;23.65;;;;;;;;;;6092817;23;19999;-81
2023/12/05 07:30:10;;;;;;;46.22;25.08;;;;;;;;;;6097695;23;19999;-83
2023/12/05 07:32:35;;;;;;;41.38;23.13;;;;;;;;;;6096638;23;19999;-82
2023/12/05 07:35:00;;;;;;;33.47;19.85;;;;;;;;;;6099994;23;20006;-82
2023/12/05 07:37:26;;;;;;;35.60;19.77;;;;;;;;;;6095437;23;20438;-82
2023/12/05 07:39:51;;;;;;;35.17;20.70;;;;;;;;;;6089798;23;20054;-82
2023/12/05 07:42:16;;;;;;;30.83;17.60;;;;;;;;;;6089796;23;20490;-82
2023/12/05 07:44:42;;;;;;;34.55;19.08;;;;;;;;;;6089439;23;20022;-82
2023/12/05 07:47:07;;;;;;;40.65;22.02;;;;;;;;;;6089362;23;20002;-82
2023/12/05 07:49:34;;;;;;;41.08;21.98;;;;;;;;;;6090423;23;20046;-81
2023/12/05 07:52:01;;;;;;;35.60;21.02;;;;;;;;;;6094021;23;20002;-82
2023/12/05 07:54:26;;;;;;;41.85;25.67;;;;;;;;;;6089705;23;20002;-82
2023/12/05 07:56:51;;;;;;;47.45;27.67;;;;;;;;;;6089441;23;20089;-84
2023/12/05 07:59:17;;;;;;;56.50;29.13;;;;;;;;;;6091009;23;20073;-82
2023/12/05 08:01:44;;;;;;;33.08;19.42;;;;;;;;;;6089479;23;20002;-83
2023/12/05 08:04:10;;;;;;;34.88;20.13;;;;;;;;;;6089728;23;20021;-83
2023/12/05 08:06:35;;;;;;;36.88;20.90;;;;;;;;;;6088913;23;20428;-82
2023/12/05 08:09:00;;;;;;;40.20;22.60;;;;;;;;;;6088452;23;20006;-82
2023/12/05 08:11:26;;;;;;;36.78;19.35;;;;;;;;;;6092412;23;20269;-82
2023/12/05 08:13:52;;;;;;;52.22;20.02;;;;;;;;;;6092078;23;20486;-82
2023/12/05 08:16:18;;;;;;;45.28;26.35;;;;;;;;;;6092751;23;20006;-84
2023/12/05 08:18:43;;;;;;;38.30;22.33;;;;;;;;;;6091502;23;20049;-84
2023/12/05 08:21:08;;;;;;;31.92;18.67;;;;;;;;;;6090428;23;20002;-82
2023/12/05 08:23:34;;;;;;;44.83;25.27;;;;;;;;;;6090881;23;21028;-82
2023/12/05 08:25:59;;;;;;;42.13;23.30;;;;;;;;;;6092595;23;20003;-82
2023/12/05 08:28:25;;;;;;;45.50;24.90;;;;;;;;;;6090445;23;20682;-83
2023/12/05 08:30:50;;;;;;;46.75;26.17;;;;;;;;;;6092919;23;20002;-84
2023/12/05 08:33:16;;;;;;;37.60;20.38;;;;;;;;;;6093123;23;19999;-84
2023/12/05 08:35:41;;;;;;;46.38;26.70;;;;;;;;;;6092594;23;20030;-84
2023/12/05 08:38:06;;;;;;;40.50;20.38;;;;;;;;;;6092092;23;20114;-84
2023/12/05 08:40:32;;;;;;;32.38;18.55;;;;;;;;;;6090983;23;20093;-83
2023/12/05 08:42:58;;;;;;;40.92;22.50;;;;;;;;;;6092800;23;20024;-82
2023/12/05 08:45:24;;;;;;;33.42;15.88;;;;;;;;;;6090258;23;20081;-81
2023/12/05 08:47:53;;;;;;;39.15;18.65;;;;;;;;;;6092304;23;20316;-84
2023/12/05 08:50:19;;;;;;;40.83;22.42;;;;;;;;;;6091922;23;19994;-80
2023/12/05 08:52:44;;;;;;;50.20;27.13;;;;;;;;;;6091170;23;20009;-82
2023/12/05 08:55:10;;;;;;;47.92;25.80;;;;;;;;;;6090769;23;20374;-84
2023/12/05 08:57:36;;;;;;;38.75;19.95;;;;;;;;;;6090627;23;20002;-82
2023/12/05 09:00:04;;;;;;;32.05;16.65;;;;;;;;;;6090140;23;19999;-83
2023/12/05 09:02:29;;;;;;;42.33;22.93;;;;;;;;;;6090872;23;20446;-81
2023/12/05 09:04:56;;;;;;;36.28;19.50;;;;;;;;;;6090100;23;20224;-82
2023/12/05 09:07:21;;;;;;;42.78;23.65;;;;;;;;;;6089632;23;20326;-83
2023/12/05 09:09:46;;;;;;;39.20;20.63;;;;;;;;;;6089419;23;20033;-81
2023/12/05 09:12:12;;;;;;;45.10;24.73;;;;;;;;;;6091332;23;20138;-82
2023/12/05 09:14:37;;;;;;;41.40;23.98;;;;;;;;;;6089767;23;20009;-82
2023/12/05 09:17:03;;;;;;;42.90;22.33;;;;;;;;;;6091876;23;20085;-81
2023/12/05 09:19:28;;;;;;;37.83;20.02;;;;;;;;;;6089867;23;20006;-84
2023/12/05 09:21:53;;;;;;;45.35;25.65;;;;;;;;;;6091435;23;20017;-81
2023/12/05 09:24:19;;;;;;;32.92;17.73;;;;;;;;;;6090066;23;20013;-83
2023/12/05 09:26:44;;;;;;;41.10;20.40;;;;;;;;;;6091223;23;20086;-83
2023/12/05 09:29:09;;;;;;;42.92;22.98;;;;;;;;;;6089577;23;20013;-82
2023/12/05 09:31:35;;;;;;;33.13;17.42;;;;;;;;;;6090128;23;20376;-81
2023/12/05 09:34:02;;;;;;;30.63;17.45;;;;;;;;;;6091713;23;20494;-83
2023/12/05 09:36:27;;;;;;;34.83;19.55;;;;;;;;;;6090515;23;20013;-83
2023/12/05 09:38:53;;;;;;;45.63;26.73;;;;;;;;;;6090079;23;20010;-83
2023/12/05 09:41:19;;;;;;;34.78;19.25;;;;;;;;;;6089072;23;20351;-81
2023/12/05 09:43:45;;;;;;;33.67;17.95;;;;;;;;;;6091840;23;20332;-83
2023/12/05 09:46:12;;;;;;;30.17;16.35;;;;;;;;;;6091396;23;20053;-83
2023/12/05 09:48:40;;;;;;;34.25;18.58;;;;;;;;;;6091496;23;19990;-82
2023/12/05 09:51:08;;;;;;;;;;;;;;;;;;6090755;23;20018;-83
2023/12/05 09:53:33;;;;;;;33.33;18.95;;;;;;;;;;6091747;23;19932;-84
2023/12/05 09:56:02;;;;;;;44.03;23.95;;;;;;;;;;6091827;23;20475;-83
2023/12/05 09:58:28;;;;;;;30.92;16.10;;;;;;;;;;6093781;23;20041;-83
2023/12/05 10:00:55;;;;;;;30.65;16.85;;;;;;;;;;6069463;23;20006;-82
2023/12/05 10:03:21;;;;;;;42.97;23.48;;;;;;;;;;6097057;23;20006;-83
2023/12/05 10:05:47;;;;;;;27.20;15.60;;;;;;;;;;6090080;23;20477;-80
2023/12/05 10:08:13;;;;;;;32.13;17.67;;;;;;;;;;6064749;23;20022;-80
2023/12/05 10:10:39;;;;;;;33.83;17.38;;;;;;;;;;6063540;23;20093;-81
2023/12/05 10:13:04;;;;;;;31.13;16.20;;;;;;;;;;6088162;23;20065;-80
2023/12/05 10:15:30;;;;;;;27.02;15.00;;;;;;;;;;6064000;23;20053;-80
2023/12/05 10:17:55;;;;;;;31.20;16.35;;;;;;;;;;6089084;23;19998;-83
2023/12/05 10:20:20;;;;;;;29.23;16.67;;;;;;;;;;6039672;23;20006;-83
2023/12/05 10:22:46;;;;;;;31.40;16.33;;;;;;;;;;6088621;23;20078;-83
2023/12/05 10:25:14;;;;;;;36.42;17.85;;;;;;;;;;6088376;23;20010;-82
2023/12/05 10:27:40;;;;;;;31.83;17.17;;;;;;;;;;6031064;23;20003;-83
2023/12/05 10:30:06;;;;;;;27.75;13.05;;;;;;;;;;6030632;23;20055;-84
2023/12/05 10:32:32;;;;;;;34.13;18.27;;;;;;;;;;6010739;23;19999;-83
2023/12/05 10:34:57;;;;;;;31.90;15.70;;;;;;;;;;6035957;23;20007;-82
2023/12/05 10:37:23;;;;;;;31.27;17.05;;;;;;;;;;6059546;23;20010;-84
2023/12/05 10:39:49;;;;;;;28.08;15.25;;;;;;;;;;6059703;23;20169;-81
2023/12/05 10:42:15;;;;;;;31.35;17.58;;;;;;;;;;6059067;23;20046;-82
2023/12/05 10:44:40;;;;;;;29.08;17.23;;;;;;;;;;6035573;23;20155;-82
2023/12/05 10:47:06;;;;;;;36.92;19.52;;;;;;;;;;6058218;23;20018;-82
2023/12/05 10:49:32;;;;;;;36.75;20.40;;;;;;;;;;6059018;23;20002;-82
2023/12/05 10:51:58;;;;;;;31.08;18.17;;;;;;;;;;6059246;23;20007;-82
2023/12/05 10:54:24;;;;;;;34.83;16.70;;;;;;;;;;6035639;23;20081;-82
2023/12/05 10:56:58;;;;;;;27.45;15.20;;;;;;;;;;6035372;23;20017;-83
2023/12/05 10:59:27;;;;;;;29.23;17.15;;;;;;;;;;6035065;23;20007;-82
2023/12/05 11:01:56;;;;;;;26.70;15.63;;;;;;;;;;6035215;23;20403;-83
2023/12/05 11:04:26;;;;;;;35.10;18.58;;;;;;;;;;6042220;23;20510;-83
2023/12/05 11:06:54;;;;;;;23.55;12.32;;;;;;;;;;6086789;23;20002;-83
2023/12/05 11:09:20;;;;;;;33.15;19.08;;;;;;;;;;6090371;23;20037;-82
2023/12/05 11:11:46;;;;;;;29.48;16.60;;;;;;;;;;6091411;23;19999;-82
2023/12/05 11:14:11;;;;;;;34.10;17.88;;;;;;;;;;6089767;23;20006;-82
2023/12/05 11:16:39;;;;;;;31.25;18.00;;;;;;;;;;6091961;23;20007;-84
2023/12/05 11:19:23;;;;;;;32.83;17.50;;;;;;;;;;6089688;23;20010;-83
2023/12/05 11:22:05;;;;;;;29.48;17.98;;;;;;;;;;6089193;23;20010;-82
2023/12/05 11:24:30;;;;;;;29.67;16.50;;;;;;;;;;6089258;23;20006;-83
2023/12/05 11:27:08;;;;;;;26.60;15.00;;;;;;;;;;6091278;23;20398;-83
2023/12/05 11:29:43;;;;;;;27.75;15.65;;;;;;;;;;6089126;23;20005;-83
2023/12/05 11:32:14;;;;;;;26.10;14.63;;;;;;;;;;6089561;23;20002;-83
2023/12/05 11:34:52;;;;;;;34.25;19.02;;;;;;;;;;6089899;23;20008;-82
2023/12/05 11:37:29;;;;;;;32.55;17.92;;;;;;;;;;6088968;23;20054;-82
2023/12/05 11:39:55;;;;;;;28.98;15.80;;;;;;;;;;6089446;23;20006;-82
2023/12/05 11:42:20;;;;;;;30.35;16.48;;;;;;;;;;6088573;23;20089;-82
2023/12/05 11:44:45;;;;;;;26.20;14.52;;;;;;;;;;6090122;23;20462;-80
2023/12/05 11:47:30;;;;;;;29.70;17.25;;;;;;;;;;6090791;23;19998;-81
2023/12/05 11:49:56;;;;;;;25.73;14.85;;;;;;;;;;6084550;23;19995;-80
2023/12/05 11:52:22;;;;;;;23.20;13.98;;;;;;;;;;6091024;23;19998;-80
2023/12/05 11:54:49;;;;;;;29.00;15.15;;;;;;;;;;6092761;23;20010;-81
2023/12/05 11:57:17;;;;;;;31.02;19.02;;;;;;;;;;6092741;23;20035;-86
2023/12/05 11:59:43;;;;;;;28.52;15.00;;;;;;;;;;6091005;23;20014;-82
2023/12/05 12:02:11;;;;;;;29.38;16.25;;;;;;;;;;6091509;23;20427;-83
2023/12/05 12:04:37;;;;;;;36.20;19.65;;;;;;;;;;6091123;23;20322;-82
2023/12/05 12:07:03;;;;;;;31.23;17.73;;;;;;;;;;6090707;23;19994;-81
2023/12/05 12:09:28;;;;;;;30.55;17.42;;;;;;;;;;6090018;23;20054;-81
2023/12/05 12:11:55;;;;;;;33.60;18.42;;;;;;;;;;6090640;23;20002;-81
2023/12/05 12:14:20;;;;;;;28.65;17.70;;;;;;;;;;6090688;23;20377;-82
2023/12/05 12:16:46;;;;;;;36.70;19.48;;;;;;;;;;6090241;23;20002;-81
2023/12/05 12:19:12;;;;;;;39.47;22.27;;;;;;;;;;6091754;23;20003;-80
2023/12/05 12:21:38;;;;;;;28.90;16.70;;;;;;;;;;6090690;23;20335;-82
2023/12/05 12:24:04;;;;;;;29.55;17.90;;;;;;;;;;6091919;23;20026;-83
2023/12/05 12:26:32;;;;;;;28.60;16.67;;;;;;;;;;6093888;23;20033;-80
2023/12/05 12:29:07;;;;;;;27.42;15.77;;;;;;;;;;6101919;23;20010;-82
2023/12/05 12:31:33;;;;;;;55.72;29.40;;;;;;;;;;6101528;23;19998;-82
2023/12/05 12:34:02;;;;;;;38.78;22.08;;;;;;;;;;6092190;23;20424;-81
2023/12/05 12:36:31;;;;;;;30.33;17.05;;;;;;;;;;6091757;23;20393;-81
2023/12/05 12:38:56;;;;;;;34.13;19.80;;;;;;;;;;6090991;23;20009;-81
2023/12/05 12:41:23;;;;;;;30.75;18.50;;;;;;;;;;6089114;23;20565;-81
2023/12/05 12:43:48;;;;;;;40.75;23.95;;;;;;;;;;6090993;23;20002;-81
2023/12/05 12:46:14;;;;;;;32.97;19.30;;;;;;;;;;6092497;23;20335;-82
2023/12/05 12:48:39;;;;;;;29.27;17.83;;;;;;;;;;6090617;23;19998;-81
2023/12/05 12:51:05;;;;;;;32.15;17.95;;;;;;;;;;6091507;23;20010;-80
2023/12/05 12:53:31;;;;;;;43.00;23.65;;;;;;;;;;6092288;23;20069;-82
2023/12/05 12:55:56;;;;;;;26.55;14.38;;;;;;;;;;6089986;23;20029;-80
2023/12/05 12:58:31;;;;;;;27.98;16.85;;;;;;;;;;6090330;23;20030;-80
2023/12/05 13:00:58;;;;;;;23.10;13.88;;;;;;;;;;6089587;23;20034;-80
2023/12/05 13:03:24;;;;;;;35.17;21.13;;;;;;;;;;6089691;23;20010;-81
2023/12/05 13:05:49;;;;;;;26.45;15.07;;;;;;;;;;6090078;23;20006;-83
2023/12/05 13:08:14;;;;;;;31.77;18.65;;;;;;;;;;6090279;23;20078;-82
2023/12/05 13:10:41;;;;;;;26.13;16.38;;;;;;;;;;6091397;23;19994;-82
2023/12/05 13:13:06;;;;;;;28.63;17.33;;;;;;;;;;6090298;23;20391;-82
2023/12/05 13:15:31;;;;;;;33.10;18.38;;;;;;;;;;6091837;23;20029;-80
2023/12/05 13:17:57;;;;;;;27.90;16.98;;;;;;;;;;6090148;23;20006;-80
2023/12/05 13:20:23;;;;;;;31.60;18.58;;;;;;;;;;6091525;23;20104;-81
2023/12/05 13:22:48;;;;;;;30.90;17.23;;;;;;;;;;6066707;23;20502;-81
2023/12/05 13:25:14;;;;;;;29.73;18.15;;;;;;;;;;6089385;23;19998;-81
2023/12/05 13:27:39;;;;;;;31.88;18.88;;;;;;;;;;6090563;23;20008;-81
2023/12/05 13:30:06;;;;;;;32.30;19.88;;;;;;;;;;6090990;23;20339;-81
2023/12/05 13:32:31;;;;;;;28.35;17.35;;;;;;;;;;6091806;23;20045;-80
2023/12/05 13:34:57;;;;;;;27.80;15.82;;;;;;;;;;6092191;23;20006;-80
2023/12/05 13:37:23;;;;;;;31.52;19.58;;;;;;;;;;6091649;23;20022;-84
2023/12/05 13:39:49;;;;;;;27.42;14.90;;;;;;;;;;6090222;23;20427;-81
2023/12/05 13:42:16;;;;;;;28.20;17.48;;;;;;;;;;6117970;23;20014;-80
2023/12/05 13:44:43;;;;;;;36.03;22.20;;;;;;;;;;6095142;23;20077;-80
2023/12/05 13:47:08;;;;;;;34.10;19.20;;;;;;;;;;6096614;23;20083;-81
2023/12/05 13:49:35;;;;;;;33.08;19.58;;;;;;;;;;6095616;23;20423;-79
2023/12/05 13:52:03;;;;;;;34.40;19.90;;;;;;;;;;6121411;23;20006;-81
2023/12/05 13:54:29;;;;;;;31.60;18.40;;;;;;;;;;6121393;23;20029;-80
2023/12/05 13:56:54;;;;;;;31.67;17.63;;;;;;;;;;6095305;23;20002;-80
2023/12/05 13:59:20;;;;;;;31.98;17.88;;;;;;;;;;6094976;23;20012;-82
2023/12/05 14:01:45;;;;;;;45.95;25.52;;;;;;;;;;6094404;23;20405;-82
2023/12/05 14:04:11;;;;;;;35.97;18.33;;;;;;;;;;6095049;23;20069;-81
2023/12/05 14:06:37;;;;;;;31.13;17.90;;;;;;;;;;6118868;23;20334;-79
2023/12/05 14:09:02;;;;;;;47.53;24.77;;;;;;;;;;6092478;23;19994;-80